Time;durP1;ratioP1;P1;durP2;ratioP2;P2;SDS_P1;SDS_P2;PMS_P1;PMS_P2;Temp;Humidity;BMP_temperature;BMP_pressure;BME280_temperature;BME280_humidity;BME280_pressure;Samples;Min_cycle;Max_cycle;Signal;HPM_P1;HPM_P2
2021/09/30 00:00:47;;;;;;;1.30;0.60;;;12.60;99.90;;;;;;5051469;28;20830;-58
2021/09/30 00:03:14;;;;;;;2.30;0.90;;;12.60;99.90;;;;;;5048581;28;20459;-58
2021/09/30 00:05:42;;;;;;;1.43;0.67;;;12.40;99.90;;;;;;5052318;28;20447;-58
2021/09/30 00:08:11;;;;;;;1.10;0.67;;;12.50;99.90;;;;;;5051569;28;20456;-58
2021/09/30 00:10:46;;;;;;;2.00;0.63;;;12.60;99.90;;;;;;5051846;28;20467;-58
2021/09/30 00:13:25;;;;;;;1.63;0.70;;;12.60;99.90;;;;;;5047021;28;20480;-58
2021/09/30 00:16:07;;;;;;;2.53;0.67;;;12.60;99.90;;;;;;5032168;28;20563;-59
2021/09/30 00:35:24;;;;;;;7.20;3.10;;;11.90;99.90;;;;;;4985011;28;20441;-58
2021/09/30 00:40:49;;;;;;;8.43;2.90;;;11.60;99.90;;;;;;5037603;28;20463;-58
2021/09/30 00:46:03;;;;;;;3.50;2.00;;;11.60;99.90;;;;;;5042824;28;20443;-58
2021/09/30 00:48:49;;;;;;;2.00;1.80;;;11.70;99.90;;;;;;5031933;28;20448;-58
2021/09/30 00:51:24;;;;;;;1.73;1.30;;;11.70;99.90;;;;;;5033311;28;20464;-58
2021/09/30 00:54:13;;;;;;;2.00;1.23;;;11.60;99.90;;;;;;5051632;28;20466;-58
2021/09/30 02:24:32;;;;;;;3.83;2.27;;;11.90;99.90;;;;;;5008802;28;20433;-58
2021/09/30 02:29:59;;;;;;;3.37;1.60;;;12.00;99.90;;;;;;5054372;28;20423;-58
2021/09/30 03:00:15;;;;;;;3.33;1.20;;;11.40;99.90;;;;;;5033343;28;20424;-58
2021/09/30 03:02:44;;;;;;;1.20;0.90;;;11.40;99.90;;;;;;5033838;28;20453;-58
2021/09/30 03:05:14;;;;;;;1.50;0.90;;;11.50;99.90;;;;;;5033888;28;20474;-58
2021/09/30 03:07:44;;;;;;;0.90;0.80;;;11.70;99.90;;;;;;5042622;28;20531;-58
2021/09/30 03:10:12;;;;;;;1.03;0.90;;;11.80;99.90;;;;;;5035264;28;20858;-58
2021/09/30 03:12:40;;;;;;;1.43;0.80;;;11.80;99.90;;;;;;5033453;28;20502;-58
2021/09/30 03:15:15;;;;;;;1.10;0.80;;;11.70;99.90;;;;;;5033363;28;20865;-58
2021/09/30 03:17:48;;;;;;;3.07;0.80;;;11.50;99.90;;;;;;5034134;28;20557;-58
2021/09/30 03:20:42;;;;;;;0.77;0.70;;;11.60;99.90;;;;;;5053036;28;20459;-58
2021/09/30 03:23:11;;;;;;;1.10;0.90;;;11.80;99.90;;;;;;5052963;28;20874;-58
2021/09/30 03:25:41;;;;;;;1.30;0.73;;;11.80;99.90;;;;;;5051351;28;20456;-58
2021/09/30 03:28:09;;;;;;;1.73;1.57;;;11.90;99.90;;;;;;5051047;28;20811;-58
2021/09/30 03:30:36;;;;;;;3.40;0.90;;;12.00;99.90;;;;;;5053125;28;20512;-58
2021/09/30 03:33:05;;;;;;;1.10;1.00;;;11.90;99.90;;;;;;5052994;28;20875;-58
2021/09/30 03:35:33;;;;;;;2.20;0.80;;;11.90;99.90;;;;;;5052562;28;21020;-58
2021/09/30 03:38:01;;;;;;;2.50;1.20;;;11.90;99.90;;;;;;5047875;28;20480;-58
2021/09/30 03:40:30;;;;;;;1.90;1.00;;;12.00;99.90;;;;;;5047740;28;20483;-58
2021/09/30 03:42:57;;;;;;;0.80;0.80;;;12.00;99.90;;;;;;5046619;28;20902;-57
2021/09/30 03:45:24;;;;;;;1.30;1.00;;;12.00;99.90;;;;;;5050653;28;20447;-58
2021/09/30 03:47:51;;;;;;;1.83;1.13;;;12.00;99.90;;;;;;5040832;28;20526;-57
2021/09/30 03:50:22;;;;;;;1.43;0.90;;;12.10;99.90;;;;;;5046740;28;20521;-58
2021/09/30 03:53:01;;;;;;;5.13;1.10;;;11.80;99.90;;;;;;5038100;28;20453;-58
2021/09/30 03:55:41;;;;;;;1.57;1.00;;;11.80;99.90;;;;;;5049823;28;20494;-58
2021/09/30 04:00:52;;;;;;;4.00;0.93;;;12.00;99.90;;;;;;5050884;28;21073;-58
2021/09/30 04:03:19;;;;;;;3.13;1.40;;;12.00;99.90;;;;;;5047666;28;20463;-58
2021/09/30 04:05:46;;;;;;;1.87;1.10;;;12.00;99.90;;;;;;5045465;28;21185;-58
2021/09/30 04:08:13;;;;;;;2.90;0.90;;;11.80;99.90;;;;;;5052013;28;21142;-58
2021/09/30 04:10:41;;;;;;;1.40;1.00;;;11.70;99.90;;;;;;5051524;28;20460;-58
2021/09/30 04:13:09;;;;;;;1.37;1.00;;;11.80;99.90;;;;;;5069819;22;20512;-56
2021/09/30 04:15:37;;;;;;;2.40;0.90;;;11.90;99.90;;;;;;5030963;28;20567;-56
2021/09/30 04:18:05;;;;;;;3.33;2.60;;;11.90;99.90;;;;;;5030392;28;20575;-56
2021/09/30 04:20:32;;;;;;;1.70;0.83;;;12.00;99.90;;;;;;5029651;28;20523;-58
2021/09/30 04:23:03;;;;;;;1.40;1.10;;;11.90;99.90;;;;;;5030553;28;20530;-52
2021/09/30 04:25:33;;;;;;;1.30;1.20;;;11.90;99.90;;;;;;5032197;28;20452;-55
2021/09/30 04:28:01;;;;;;;1.10;1.00;;;11.80;99.90;;;;;;5031958;28;20449;-53
2021/09/30 04:30:32;;;;;;;3.07;1.77;;;11.80;99.90;;;;;;5031506;28;20858;-53
2021/09/30 04:32:59;;;;;;;2.03;0.80;;;11.90;99.90;;;;;;5017813;28;20466;-53
2021/09/30 04:35:27;;;;;;;1.63;1.10;;;11.90;99.90;;;;;;5030286;28;20844;-53
2021/09/30 04:37:54;;;;;;;3.27;0.87;;;11.90;99.90;;;;;;5027538;28;20489;-55
2021/09/30 04:40:21;;;;;;;2.50;1.00;;;11.90;99.90;;;;;;5030985;28;20448;-53
2021/09/30 04:42:48;;;;;;;2.53;1.20;;;12.00;99.90;;;;;;5031983;28;20453;-53
2021/09/30 04:45:17;;;;;;;2.50;1.20;;;12.00;99.90;;;;;;5030931;28;20947;-54
2021/09/30 04:47:44;;;;;;;2.40;1.07;;;12.00;99.90;;;;;;5016772;28;20480;-56
2021/09/30 04:50:11;;;;;;;1.30;1.20;;;12.00;99.90;;;;;;5031105;28;20483;-54
2021/09/30 04:52:38;;;;;;;4.93;1.13;;;12.00;99.90;;;;;;5029482;28;21050;-54
2021/09/30 04:55:06;;;;;;;1.87;1.17;;;12.00;99.90;;;;;;5029885;28;20955;-53
2021/09/30 04:57:33;;;;;;;3.00;0.90;;;12.00;99.90;;;;;;5030371;28;20479;-53
2021/09/30 05:00:00;;;;;;;2.03;1.27;;;12.10;99.90;;;;;;5030702;28;21018;-54
2021/09/30 05:02:29;;;;;;;1.27;1.17;;;12.10;99.90;;;;;;5027070;28;20453;-54
2021/09/30 05:04:56;;;;;;;2.87;1.40;;;12.00;99.90;;;;;;5011770;28;20469;-54
2021/09/30 05:07:23;;;;;;;2.60;1.20;;;11.90;99.90;;;;;;5016869;28;20446;-55
2021/09/30 05:09:52;;;;;;;2.17;1.20;;;11.90;99.90;;;;;;5027336;28;20198;-55
2021/09/30 05:12:21;;;;;;;6.07;4.13;;;11.80;99.90;;;;;;5016803;28;20453;-55
2021/09/30 05:14:49;;;;;;;4.60;3.30;;;11.80;99.90;;;;;;5034305;28;20487;-53
2021/09/30 05:17:16;;;;;;;4.13;2.90;;;11.80;99.90;;;;;;5031944;28;20595;-53
2021/09/30 05:19:44;;;;;;;2.37;1.70;;;11.90;99.90;;;;;;5034962;28;20449;-54
2021/09/30 05:22:11;;;;;;;3.03;1.63;;;11.90;99.90;;;;;;5034423;28;20953;-53
2021/09/30 05:24:38;;;;;;;3.90;1.60;;;11.90;99.90;;;;;;5033191;28;20473;-54
2021/09/30 05:27:06;;;;;;;4.20;1.70;;;11.80;99.90;;;;;;5027286;28;20515;-54
2021/09/30 05:29:33;;;;;;;5.13;2.20;;;11.90;99.90;;;;;;5028578;28;21051;-54
2021/09/30 05:32:00;;;;;;;5.73;2.50;;;11.80;99.90;;;;;;5032202;28;20449;-55
2021/09/30 05:34:27;;;;;;;5.67;2.93;;;11.90;99.90;;;;;;5026796;28;20512;-53
2021/09/30 05:36:55;;;;;;;7.37;4.43;;;11.90;99.90;;;;;;5033717;28;20534;-55
2021/09/30 05:39:22;;;;;;;7.23;4.00;;;11.90;99.90;;;;;;5033620;28;20499;-53
2021/09/30 05:41:50;;;;;;;8.87;4.27;;;11.80;99.90;;;;;;5034849;28;20533;-53
2021/09/30 05:44:21;;;;;;;4.50;2.70;;;11.80;99.90;;;;;;5034695;28;20464;-54
2021/09/30 05:46:53;;;;;;;3.83;2.43;;;11.80;99.90;;;;;;5032496;28;20456;-54
2021/09/30 05:49:20;;;;;;;2.03;1.70;;;11.70;99.90;;;;;;5034596;28;20464;-54
2021/09/30 05:51:47;;;;;;;2.77;1.70;;;11.70;99.90;;;;;;5034586;28;20455;-55
2021/09/30 05:54:16;;;;;;;4.70;2.00;;;11.80;99.90;;;;;;5018025;28;20533;-55
2021/09/30 05:56:43;;;;;;;1.73;1.40;;;11.70;99.90;;;;;;5019706;28;20449;-54
2021/09/30 05:59:10;;;;;;;2.30;1.27;;;11.80;99.90;;;;;;5034300;28;20498;-56
2021/09/30 06:05:48;;;;;;;2.00;1.70;;;12.00;99.90;;;;;;5003060;28;20464;-54
2021/09/30 06:12:55;;;;;;;3.33;1.97;;;12.10;99.90;;;;;;5028451;28;20437;-54
2021/09/30 06:15:32;;;;;;;1.60;1.50;;;12.20;99.90;;;;;;5014439;28;20966;-53
2021/09/30 06:18:01;;;;;;;2.53;1.57;;;12.30;99.90;;;;;;5014441;28;20489;-53
2021/09/30 06:20:32;;;;;;;4.60;1.67;;;12.40;99.90;;;;;;5013962;28;20900;-54
2021/09/30 06:22:58;;;;;;;2.23;1.50;;;12.70;99.90;;;;;;5027496;28;20889;-53
2021/09/30 06:25:31;;;;;;;1.93;1.47;;;12.80;99.90;;;;;;5026922;28;20951;-53
2021/09/30 06:27:58;;;;;;;10.63;1.97;;;12.60;99.90;;;;;;5032712;28;20511;-54
2021/09/30 06:30:30;;;;;;;1.40;1.30;;;12.60;99.90;;;;;;5033142;28;20448;-54
2021/09/30 06:32:57;;;;;;;6.90;2.00;;;12.60;99.90;;;;;;5032556;28;20546;-53
2021/09/30 06:35:25;;;;;;;4.13;1.90;;;12.60;99.90;;;;;;5033452;28;20449;-55
2021/09/30 06:37:51;;;;;;;3.50;1.70;;;12.50;99.90;;;;;;5034478;28;20476;-53
2021/09/30 06:40:18;;;;;;;4.93;1.90;;;12.30;99.90;;;;;;5032605;28;20502;-53
2021/09/30 06:42:47;;;;;;;1.97;1.50;;;12.30;99.90;;;;;;5029574;28;20946;-52
2021/09/30 06:45:14;;;;;;;4.13;1.70;;;12.30;99.90;;;;;;5036502;28;20443;-53
2021/09/30 06:47:41;;;;;;;2.40;1.57;;;12.40;99.90;;;;;;5033994;28;20480;-53
2021/09/30 06:50:11;;;;;;;2.83;1.50;;;12.50;99.90;;;;;;5033883;28;20519;-53
2021/09/30 06:52:38;;;;;;;2.43;1.33;;;12.60;99.90;;;;;;5033139;28;20449;-53
2021/09/30 06:55:06;;;;;;;4.10;2.03;;;12.60;99.90;;;;;;5024509;28;20868;-53
2021/09/30 06:57:33;;;;;;;4.20;1.50;;;12.70;99.90;;;;;;5033183;28;20955;-53
2021/09/30 07:00:06;;;;;;;3.60;1.47;;;12.90;99.90;;;;;;5032972;28;20954;-53
2021/09/30 07:02:37;;;;;;;4.30;1.70;;;12.90;99.90;;;;;;5033665;28;20453;-53
2021/09/30 07:05:04;;;;;;;2.07;1.20;;;12.90;99.90;;;;;;5029366;28;20457;-53
2021/09/30 07:07:31;;;;;;;4.37;1.40;;;12.90;99.90;;;;;;5033028;28;20542;-52
2021/09/30 07:09:58;;;;;;;4.30;1.30;;;12.90;99.90;;;;;;5033162;28;20448;-52
2021/09/30 07:12:25;;;;;;;1.80;1.23;;;13.10;99.90;;;;;;5033215;28;20499;-52
2021/09/30 07:14:52;;;;;;;4.40;1.27;;;13.20;99.90;;;;;;5032335;28;20854;-53
2021/09/30 07:17:21;;;;;;;1.33;1.10;;;13.40;99.90;;;;;;5033434;28;20505;-53
2021/09/30 07:19:48;;;;;;;1.07;0.97;;;13.50;99.90;;;;;;5032821;28;20515;-53
2021/09/30 07:22:15;;;;;;;4.97;1.03;;;13.60;99.90;;;;;;5025852;28;20512;-52
2021/09/30 07:24:42;;;;;;;1.83;0.80;;;13.70;99.90;;;;;;5024109;28;20472;-53
2021/09/30 07:27:10;;;;;;;1.30;1.03;;;13.90;99.90;;;;;;5032611;28;20454;-52
2021/09/30 07:29:38;;;;;;;2.00;0.77;;;14.00;99.90;;;;;;5030823;28;20894;-53
2021/09/30 07:32:06;;;;;;;1.73;0.87;;;14.20;99.90;;;;;;5029863;28;20472;-53
2021/09/30 07:34:35;;;;;;;3.33;1.00;;;14.20;99.90;;;;;;5026653;28;20888;-53
2021/09/30 07:37:02;;;;;;;3.07;1.33;;;14.30;99.90;;;;;;5016989;28;20449;-53
2021/09/30 07:39:30;;;;;;;2.00;0.97;;;14.60;99.90;;;;;;5033098;28;20504;-51
2021/09/30 07:41:58;;;;;;;1.20;0.80;;;14.60;99.90;;;;;;5025178;28;20453;-53
2021/09/30 07:44:26;;;;;;;2.03;0.90;;;14.70;99.90;;;;;;5016336;28;20507;-53
2021/09/30 07:46:55;;;;;;;2.40;1.10;;;14.60;99.90;;;;;;5032798;28;20457;-53
2021/09/30 07:49:22;;;;;;;1.63;1.00;;;14.70;99.90;;;;;;5032532;28;20514;-53
2021/09/30 07:51:51;;;;;;;1.20;0.80;;;14.40;99.90;;;;;;5032806;28;20539;-53
2021/09/30 07:54:19;;;;;;;1.30;1.00;;;14.40;99.90;;;;;;5031870;28;20469;-52
2021/09/30 07:56:46;;;;;;;3.20;1.00;;;14.40;99.90;;;;;;5016103;28;20445;-53
2021/09/30 07:59:13;;;;;;;4.00;0.90;;;14.70;99.90;;;;;;5013482;28;20978;-53
2021/09/30 08:01:41;;;;;;;2.97;1.17;;;14.80;99.90;;;;;;5020878;28;20445;-53
2021/09/30 08:04:08;;;;;;;1.23;1.07;;;14.90;99.90;;;;;;5031553;28;20469;-53
2021/09/30 08:06:38;;;;;;;4.07;1.40;;;15.10;99.90;;;;;;5043789;28;20452;-53
2021/09/30 08:09:06;;;;;;;2.20;0.83;;;15.10;99.90;;;;;;5052527;28;20856;-53
2021/09/30 08:11:35;;;;;;;1.10;0.80;;;15.30;99.90;;;;;;5040600;28;20444;-53
2021/09/30 08:14:02;;;;;;;2.63;0.97;;;15.70;99.90;;;;;;5024557;28;20550;-53
2021/09/30 08:16:29;;;;;;;1.10;1.00;;;15.90;99.90;;;;;;5031722;28;20449;-54
2021/09/30 08:18:58;;;;;;;2.70;0.90;;;16.40;99.90;;;;;;5027509;28;20475;-54
2021/09/30 08:21:27;;;;;;;1.20;1.00;;;16.70;99.90;;;;;;5022757;28;20485;-54
2021/09/30 08:23:54;;;;;;;2.30;0.90;;;16.70;99.90;;;;;;5021235;28;20480;-53
2021/09/30 08:26:23;;;;;;;1.87;1.07;;;17.00;99.90;;;;;;5022895;28;20484;-53
2021/09/30 08:28:51;;;;;;;2.40;1.10;;;17.30;99.90;;;;;;5024688;28;20480;-54
2021/09/30 08:31:19;;;;;;;1.60;1.03;;;17.70;99.90;;;;;;5021784;28;20461;-54
2021/09/30 08:33:46;;;;;;;4.10;1.23;;;18.20;99.90;;;;;;5025867;28;20484;-54
2021/09/30 08:36:14;;;;;;;2.20;0.90;;;18.70;99.90;;;;;;5032018;28;20441;-54
2021/09/30 08:38:42;;;;;;;5.33;1.27;;;19.30;99.90;;;;;;5025787;28;20531;-56
2021/09/30 08:41:11;;;;;;;2.83;1.00;;;19.40;99.90;;;;;;5022411;28;20500;-54
2021/09/30 08:43:39;;;;;;;1.87;0.93;;;19.40;99.90;;;;;;5025302;28;20543;-53
2021/09/30 08:46:06;;;;;;;2.00;1.13;;;19.50;99.90;;;;;;5022468;28;20460;-54
2021/09/30 08:48:34;;;;;;;2.33;1.00;;;19.60;99.90;;;;;;5021495;28;21086;-54
2021/09/30 08:51:01;;;;;;;1.93;1.10;;;19.70;99.90;;;;;;5023012;28;20460;-54
2021/09/30 08:53:28;;;;;;;2.17;0.90;;;19.70;99.90;;;;;;5023210;28;20483;-54
2021/09/30 08:55:56;;;;;;;1.23;0.70;;;20.10;99.90;;;;;;5026183;28;20582;-54
2021/09/30 08:58:23;;;;;;;2.50;1.07;;;20.40;99.90;;;;;;5025864;28;20526;-54
2021/09/30 09:00:57;;;;;;;1.17;0.90;;;20.80;99.90;;;;;;5023080;28;20464;-54
2021/09/30 09:03:37;;;;;;;1.27;0.90;;;21.30;99.90;;;;;;5024885;28;20488;-54
2021/09/30 09:06:04;;;;;;;2.73;1.20;;;21.10;99.90;;;;;;5023203;28;20894;-54
2021/09/30 09:08:31;;;;;;;1.13;0.70;;;20.90;99.90;;;;;;5023576;28;20488;-54
2021/09/30 09:10:59;;;;;;;0.93;0.80;;;21.30;99.90;;;;;;5026046;28;21232;-54
2021/09/30 09:13:27;;;;;;;1.63;0.80;;;21.70;99.90;;;;;;5030344;28;20496;-54
2021/09/30 09:15:58;;;;;;;1.50;0.70;;;21.80;99.90;;;;;;5023370;28;20951;-54
2021/09/30 09:18:27;;;;;;;0.80;0.80;;;21.80;99.90;;;;;;5029927;28;20468;-54
2021/09/30 09:21:05;;;;;;;1.57;0.80;;;21.10;99.90;;;;;;5031184;28;20916;-54
2021/09/30 09:23:32;;;;;;;2.03;0.60;;;21.00;99.90;;;;;;5031012;28;20546;-54
2021/09/30 09:26:13;;;;;;;0.70;0.70;;;21.00;99.90;;;;;;5030183;28;20464;-54
2021/09/30 09:29:00;;;;;;;2.87;0.70;;;21.10;99.90;;;;;;5028281;28;20484;-54
2021/09/30 09:31:32;;;;;;;3.80;0.73;;;21.30;99.90;;;;;;5023772;28;20598;-54
2021/09/30 09:34:15;;;;;;;1.53;1.03;;;21.80;99.90;;;;;;5018840;28;20905;-54
2021/09/30 09:36:42;;;;;;;2.17;1.03;;;21.60;99.90;;;;;;5029368;28;20470;-53
2021/09/30 09:39:09;;;;;;;3.83;1.20;;;21.30;99.90;;;;;;5026932;28;20448;-54
2021/09/30 09:41:37;;;;;;;2.40;1.10;;;21.20;99.90;;;;;;5028237;28;20456;-54
2021/09/30 09:44:06;;;;;;;0.80;0.80;;;21.60;99.90;;;;;;5028009;28;20485;-54
2021/09/30 09:46:36;;;;;;;2.80;1.27;;;22.00;99.90;;;;;;5020784;28;20838;-54
2021/09/30 09:49:06;;;;;;;1.17;1.03;;;22.00;99.90;;;;;;5023640;28;20862;-54
2021/09/30 09:51:38;;;;;;;1.57;0.87;;;22.20;99.90;;;;;;5031001;28;20499;-54
2021/09/30 09:54:10;;;;;;;2.17;0.97;;;22.10;99.90;;;;;;5027702;28;20484;-54
2021/09/30 09:56:37;;;;;;;1.20;0.87;;;21.60;99.90;;;;;;5023502;28;20895;-54
2021/09/30 09:59:04;;;;;;;3.80;1.07;;;22.10;99.90;;;;;;5025930;28;20526;-54
2021/09/30 10:01:42;;;;;;;1.27;0.90;;;21.20;99.90;;;;;;5027005;28;20464;-54
2021/09/30 10:04:10;;;;;;;1.00;0.90;;;20.80;99.90;;;;;;5030755;28;20480;-54
2021/09/30 10:06:38;;;;;;;0.80;0.70;;;21.70;99.90;;;;;;5034372;28;20460;-54
2021/09/30 10:09:07;;;;;;;1.17;1.00;;;20.80;99.90;;;;;;5033906;28;20475;-54
2021/09/30 10:11:35;;;;;;;1.87;1.00;;;20.50;99.90;;;;;;5032322;28;20468;-54
2021/09/30 10:14:04;;;;;;;1.80;1.07;;;20.50;99.90;;;;;;5063352;22;20936;-56
2021/09/30 10:16:33;;;;;;;1.50;0.90;;;20.10;99.90;;;;;;5067415;28;20502;-55
2021/09/30 10:19:05;;;;;;;1.43;0.90;;;19.30;99.90;;;;;;5070237;28;20867;-55
2021/09/30 10:21:33;;;;;;;1.83;0.90;;;19.90;99.90;;;;;;5073853;28;20860;-56
2021/09/30 10:24:02;;;;;;;2.30;1.07;;;19.90;99.90;;;;;;5069109;28;20541;-56
2021/09/30 10:26:35;;;;;;;1.10;0.90;;;19.90;99.90;;;;;;5060391;28;20465;-55
2021/09/30 10:29:03;;;;;;;1.07;0.87;;;19.30;99.90;;;;;;5061636;28;20475;-55
2021/09/30 10:31:33;;;;;;;1.80;1.10;;;18.50;99.90;;;;;;5055685;28;20467;-56
2021/09/30 10:34:03;;;;;;;4.53;1.10;;;18.30;99.90;;;;;;5069521;28;20467;-56
2021/09/30 10:36:44;;;;;;;2.92;0.98;;;18.20;99.90;;;;;;5046460;28;20509;-55
2021/09/30 10:39:29;;;;;;;3.03;0.90;;;18.70;99.90;;;;;;5054766;28;20200;-55
2021/09/30 10:42:02;;;;;;;0.87;0.87;;;18.60;99.90;;;;;;5054721;28;20525;-55
2021/09/30 10:44:34;;;;;;;0.90;0.90;;;18.60;99.90;;;;;;5053701;28;20521;-55
2021/09/30 10:47:03;;;;;;;1.83;1.00;;;18.60;99.90;;;;;;5052239;28;20542;-55
2021/09/30 10:49:42;;;;;;;1.10;0.90;;;18.90;99.90;;;;;;5036119;28;20476;-54
2021/09/30 10:52:31;;;;;;;2.83;1.33;;;19.20;99.90;;;;;;5038926;28;20523;-55
2021/09/30 10:55:29;;;;;;;2.13;1.00;;;18.80;99.90;;;;;;5053123;28;20439;-55
2021/09/30 10:57:59;;;;;;;1.33;0.80;;;18.60;99.90;;;;;;5053285;28;20704;-55
2021/09/30 11:00:49;;;;;;;1.13;0.83;;;18.80;99.90;;;;;;5053248;28;20443;-56
2021/09/30 11:03:23;;;;;;;2.03;0.90;;;18.90;99.90;;;;;;5053547;28;20820;-56
2021/09/30 11:06:22;;;;;;;1.63;1.17;;;18.70;99.90;;;;;;5034868;28;20522;-55
2021/09/30 11:09:09;;;;;;;2.37;0.97;;;18.00;99.90;;;;;;5033345;28;21034;-55
2021/09/30 11:11:36;;;;;;;1.00;0.80;;;17.80;99.90;;;;;;5043926;28;20448;-55
2021/09/30 11:14:18;;;;;;;1.47;0.93;;;17.70;99.90;;;;;;5052156;28;20940;-55
2021/09/30 11:16:47;;;;;;;1.17;0.80;;;17.80;99.90;;;;;;5052330;28;20949;-55
2021/09/30 11:19:31;;;;;;;0.70;0.60;;;17.80;99.90;;;;;;5052237;28;20834;-56
2021/09/30 11:22:02;;;;;;;1.37;0.83;;;17.50;99.90;;;;;;5052882;28;20452;-55
2021/09/30 11:24:42;;;;;;;1.60;0.90;;;17.70;99.90;;;;;;5052886;28;20472;-55
2021/09/30 11:27:33;;;;;;;1.43;0.80;;;17.80;99.90;;;;;;5051757;28;20451;-55
2021/09/30 11:30:27;;;;;;;1.00;0.90;;;17.40;99.90;;;;;;5037666;28;20476;-55
2021/09/30 11:32:59;;;;;;;2.77;1.10;;;17.10;99.90;;;;;;5038313;28;20447;-56
2021/09/30 11:35:27;;;;;;;2.23;0.90;;;17.30;99.90;;;;;;5052823;28;20510;-55
2021/09/30 11:37:56;;;;;;;2.23;1.10;;;17.30;99.90;;;;;;5052053;28;20560;-55
2021/09/30 11:40:23;;;;;;;1.30;0.93;;;17.20;99.90;;;;;;5052481;28;20450;-55
2021/09/30 11:42:53;;;;;;;0.80;0.60;;;17.10;99.90;;;;;;5052567;28;20513;-54
2021/09/30 11:45:23;;;;;;;1.43;0.80;;;17.10;99.90;;;;;;5045065;28;20492;-54
2021/09/30 11:47:51;;;;;;;1.07;1.00;;;16.90;99.90;;;;;;5044226;28;20452;-55
2021/09/30 11:50:25;;;;;;;0.93;0.80;;;16.90;99.90;;;;;;5051870;28;20570;-54
2021/09/30 11:53:04;;;;;;;1.23;0.80;;;16.90;99.90;;;;;;5052430;28;20456;-55
2021/09/30 11:55:34;;;;;;;1.80;0.80;;;16.50;99.90;;;;;;5051784;28;20475;-54
2021/09/30 11:58:03;;;;;;;1.80;0.90;;;16.50;99.90;;;;;;5051694;28;20812;-55
2021/09/30 12:00:32;;;;;;;1.20;0.77;;;16.70;99.90;;;;;;5048257;28;20441;-55
2021/09/30 12:03:02;;;;;;;3.03;0.70;;;16.70;99.90;;;;;;5052152;28;20463;-55
2021/09/30 12:05:32;;;;;;;1.30;0.70;;;17.10;99.90;;;;;;5051559;28;20529;-54
2021/09/30 12:08:03;;;;;;;1.53;0.70;;;17.20;99.90;;;;;;5051797;28;20460;-55
2021/09/30 12:10:32;;;;;;;1.40;0.80;;;17.40;99.90;;;;;;5051344;28;20480;-55
2021/09/30 12:13:00;;;;;;;1.07;0.80;;;17.50;99.90;;;;;;5044077;28;20445;-55
2021/09/30 12:15:28;;;;;;;0.90;0.67;;;17.50;99.90;;;;;;5031907;28;21171;-56
2021/09/30 12:17:55;;;;;;;1.20;0.60;;;17.70;99.90;;;;;;5042749;28;20868;-55
2021/09/30 12:20:22;;;;;;;2.07;0.80;;;17.40;99.90;;;;;;5051161;28;20447;-54
2021/09/30 12:22:54;;;;;;;0.80;0.70;;;16.90;99.90;;;;;;5051674;28;20451;-55
2021/09/30 12:25:29;;;;;;;2.20;0.70;;;16.80;99.90;;;;;;5051945;28;20471;-55
2021/09/30 12:27:59;;;;;;;3.27;0.70;;;16.90;99.90;;;;;;5040966;28;20881;-54
2021/09/30 12:30:31;;;;;;;1.30;0.70;;;17.20;99.90;;;;;;5050367;28;20494;-55
2021/09/30 12:33:02;;;;;;;1.20;0.70;;;17.00;99.90;;;;;;5047748;28;20953;-54
2021/09/30 12:35:35;;;;;;;0.70;0.70;;;16.50;99.90;;;;;;5047293;28;20470;-54
2021/09/30 12:38:05;;;;;;;1.10;0.67;;;16.40;99.90;;;;;;5031960;28;21008;-55
2021/09/30 12:40:40;;;;;;;2.03;0.90;;;16.50;99.90;;;;;;5051712;28;20447;-54
2021/09/30 12:43:09;;;;;;;2.70;0.70;;;16.80;99.90;;;;;;5051112;28;20456;-55
2021/09/30 12:45:38;;;;;;;1.53;0.70;;;16.80;99.90;;;;;;5046607;28;20829;-55
2021/09/30 12:48:08;;;;;;;1.43;0.60;;;16.70;99.90;;;;;;5031996;28;20449;-55
2021/09/30 12:50:42;;;;;;;0.50;0.50;;;16.80;99.90;;;;;;5050348;28;20545;-54
2021/09/30 12:53:09;;;;;;;1.17;0.60;;;16.80;99.90;;;;;;5045824;28;21032;-55
2021/09/30 12:55:38;;;;;;;0.80;0.70;;;17.00;99.90;;;;;;5049793;28;20467;-54
2021/09/30 12:58:06;;;;;;;2.73;0.60;;;17.30;99.90;;;;;;5040722;28;20505;-54
2021/09/30 13:00:36;;;;;;;3.50;0.73;;;17.30;99.90;;;;;;5039919;28;20490;-54
2021/09/30 13:03:15;;;;;;;0.70;0.60;;;17.10;99.90;;;;;;5048897;28;20514;-55
2021/09/30 13:05:49;;;;;;;1.63;0.60;;;16.80;99.90;;;;;;5031357;28;20530;-55
2021/09/30 13:08:41;;;;;;;1.33;0.70;;;16.90;99.90;;;;;;5031704;28;20532;-54
2021/09/30 13:11:23;;;;;;;1.00;0.60;;;17.00;99.90;;;;;;5031412;28;20538;-54
2021/09/30 13:14:15;;;;;;;1.83;0.73;;;17.00;99.90;;;;;;5034269;28;20518;-55
2021/09/30 13:16:42;;;;;;;1.47;0.60;;;17.00;99.90;;;;;;5051396;28;20450;-54
2021/09/30 13:19:09;;;;;;;1.03;0.70;;;17.20;99.90;;;;;;5051595;28;20451;-54
2021/09/30 13:22:00;;;;;;;4.10;0.70;;;17.00;99.90;;;;;;5051426;28;20447;-55
2021/09/30 13:24:28;;;;;;;4.47;0.60;;;16.60;99.90;;;;;;5031375;28;21059;-54
2021/09/30 13:26:57;;;;;;;1.07;0.83;;;16.40;99.90;;;;;;5031662;28;20958;-54
2021/09/30 13:29:23;;;;;;;0.93;0.57;;;16.40;99.90;;;;;;5031433;28;20481;-54
2021/09/30 13:31:51;;;;;;;1.53;0.70;;;16.50;99.90;;;;;;5036923;28;20549;-54
2021/09/30 13:34:19;;;;;;;0.70;0.50;;;16.60;99.90;;;;;;5055160;28;20468;-55
2021/09/30 13:36:46;;;;;;;2.63;0.83;;;16.40;99.90;;;;;;5055099;28;20447;-55
2021/09/30 13:39:13;;;;;;;0.80;0.50;;;16.40;99.90;;;;;;5054603;28;21044;-54
2021/09/30 13:41:40;;;;;;;1.20;0.60;;;16.50;99.90;;;;;;5054747;28;20509;-55
2021/09/30 13:44:08;;;;;;;1.73;0.70;;;16.50;99.90;;;;;;5036910;28;20534;-54
2021/09/30 13:46:36;;;;;;;3.17;0.73;;;16.40;99.90;;;;;;5053078;28;20447;-55
2021/09/30 13:49:03;;;;;;;2.03;0.80;;;16.50;99.90;;;;;;5054882;28;20509;-55
2021/09/30 13:51:31;;;;;;;1.00;0.60;;;16.50;99.90;;;;;;5054644;28;20501;-54
2021/09/30 13:53:59;;;;;;;2.70;0.80;;;16.40;99.90;;;;;;5054432;28;20859;-54
2021/09/30 13:56:27;;;;;;;5.50;0.70;;;16.30;99.90;;;;;;5054988;28;20862;-55
2021/09/30 13:58:54;;;;;;;5.00;0.70;;;16.30;99.90;;;;;;5035451;28;20456;-54
2021/09/30 14:01:23;;;;;;;1.33;1.13;;;16.20;99.90;;;;;;5034571;28;20452;-55
2021/09/30 14:03:50;;;;;;;3.97;0.93;;;16.20;99.90;;;;;;5049464;28;20452;-54
2021/09/30 14:06:17;;;;;;;2.60;1.00;;;16.00;99.90;;;;;;5054658;28;20481;-54
2021/09/30 14:08:45;;;;;;;1.80;0.70;;;16.10;99.90;;;;;;5054579;28;20799;-54
2021/09/30 14:11:14;;;;;;;1.40;0.87;;;16.20;99.90;;;;;;5052760;28;20483;-54
2021/09/30 14:13:42;;;;;;;1.73;0.80;;;16.20;99.90;;;;;;5047128;28;20876;-54
2021/09/30 14:16:10;;;;;;;1.53;0.80;;;16.20;99.90;;;;;;5053984;28;20455;-54
2021/09/30 14:18:38;;;;;;;3.47;0.90;;;16.20;99.90;;;;;;5054275;28;20447;-55
2021/09/30 14:21:06;;;;;;;1.20;0.67;;;16.10;99.90;;;;;;5054434;28;20490;-54
2021/09/30 14:23:33;;;;;;;2.40;0.70;;;16.20;99.90;;;;;;5035208;28;20456;-55
2021/09/30 14:26:00;;;;;;;1.43;0.63;;;16.20;99.90;;;;;;5034340;28;20511;-53
2021/09/30 14:28:27;;;;;;;1.03;0.80;;;16.00;99.90;;;;;;5034404;28;20962;-54
2021/09/30 14:30:56;;;;;;;0.70;0.70;;;16.10;99.90;;;;;;5039314;28;20482;-54
2021/09/30 14:33:24;;;;;;;1.37;0.80;;;16.20;99.90;;;;;;5052540;28;20888;-55
2021/09/30 14:35:53;;;;;;;1.00;0.80;;;16.30;99.90;;;;;;5053579;28;20468;-54
2021/09/30 14:38:22;;;;;;;8.07;1.73;;;16.20;99.90;;;;;;5053648;28;20473;-55
2021/09/30 14:40:51;;;;;;;0.80;0.60;;;16.20;99.90;;;;;;5053766;28;20570;-54
2021/09/30 14:43:18;;;;;;;1.20;0.70;;;16.20;99.90;;;;;;5053531;28;20452;-54
2021/09/30 14:45:45;;;;;;;1.07;0.60;;;16.00;99.90;;;;;;5053850;28;21227;-54
2021/09/30 14:48:13;;;;;;;0.90;0.73;;;16.00;99.90;;;;;;5037846;28;20453;-54
2021/09/30 14:50:41;;;;;;;1.43;0.70;;;16.00;99.90;;;;;;5053562;28;20533;-54
2021/09/30 14:53:09;;;;;;;1.20;0.90;;;16.00;99.90;;;;;;5053748;28;20452;-55
2021/09/30 14:55:37;;;;;;;3.17;0.80;;;16.00;99.90;;;;;;5053637;28;20966;-55
2021/09/30 14:58:04;;;;;;;4.40;0.80;;;15.90;99.90;;;;;;5053224;28;20823;-54
2021/09/30 15:00:32;;;;;;;2.33;0.80;;;15.80;99.90;;;;;;5053668;28;20488;-54
2021/09/30 15:03:02;;;;;;;0.80;0.70;;;15.80;99.90;;;;;;5053685;28;20455;-54
2021/09/30 15:05:30;;;;;;;1.77;0.70;;;15.80;99.90;;;;;;5053571;28;20475;-54
2021/09/30 15:07:58;;;;;;;0.80;0.60;;;15.90;99.90;;;;;;5038455;28;20531;-54
2021/09/30 15:10:26;;;;;;;1.13;0.70;;;15.90;99.90;;;;;;5039330;28;20526;-54
2021/09/30 15:12:53;;;;;;;1.50;0.80;;;15.80;99.90;;;;;;5053654;28;20456;-54
2021/09/30 15:15:21;;;;;;;1.33;0.70;;;15.70;99.90;;;;;;5053274;28;20475;-53
2021/09/30 15:17:57;;;;;;;2.40;0.80;;;15.70;99.90;;;;;;5052793;28;20451;-54
2021/09/30 15:23:13;;;;;;;1.97;0.90;;;15.80;99.90;;;;;;5052169;28;20266;-54
2021/09/30 15:25:42;;;;;;;1.03;0.80;;;15.70;99.90;;;;;;5044313;28;20475;-55
2021/09/30 15:28:12;;;;;;;1.10;0.70;;;15.80;99.90;;;;;;5052866;28;20456;-55
2021/09/30 15:30:40;;;;;;;1.10;0.90;;;15.80;99.90;;;;;;5052959;28;20475;-54
2021/09/30 15:33:09;;;;;;;0.90;0.80;;;15.70;99.90;;;;;;5052590;28;20486;-54
2021/09/30 15:35:36;;;;;;;0.70;0.60;;;15.70;99.90;;;;;;5051562;28;20478;-55
2021/09/30 15:38:03;;;;;;;0.70;0.70;;;15.70;99.90;;;;;;5052146;28;20844;-55